This is the latest recevied weather packets stored in our database for station/object W3EJE-13. If no packets are shown the sender has not sent any weather packets the latest 10 day(s).
| Time | Temp. | Humidity | Pressure | Rain* | Wind** | Luminosity | Snow |
|---|---|---|---|---|---|---|---|
| 1777971231 | 13.33° C | 86% | 1011.9 hPa | 0 mm | - | 0 W/m² | - |
| 1777970929 | 13.89° C | 84% | 1012.3 hPa | 0 mm | - | 0 W/m² | - |
| 1777970627 | 14.44° C | 83% | 1012.3 hPa | 0 mm | - | 0 W/m² | - |
| 1777970324 | 15° C | 82% | 1012.3 hPa | 0 mm | - | 0 W/m² | - |
| 1777970022 | 14.44° C | 81% | 1012.3 hPa | 0 mm | - | 0 W/m² | - |
| 1777969718 | 12.22° C | 87% | 1012.1 hPa | 0 mm | - | 0 W/m² | - |
| 1777969414 | 11.67° C | 92% | 1012.5 hPa | 0 mm | - | 0 W/m² | - |
| 1777969111 | 11.11° C | 91% | 1012.1 hPa | 0 mm | - | 0 W/m² | - |
| 1777968808 | 11.11° C | 90% | 1011.9 hPa | 0 mm | - | 0 W/m² | - |
| 1777968505 | 11.67° C | 89% | 1011.7 hPa | 0 mm | - | 0 W/m² | - |
| 1777968200 | 11.67° C | 88% | 1011.7 hPa | 0 mm | - | 0 W/m² | - |
| 1777967896 | 11.67° C | 89% | 1011.8 hPa | 0 mm | - | 0 W/m² | - |
| 1777967593 | 11.11° C | 89% | 1011.7 hPa | 0 mm | - | 0 W/m² | - |
| 1777967290 | 11.11° C | 89% | 1011.7 hPa | 0 mm | - | 0 W/m² | - |
| 1777966987 | 11.67° C | 89% | 1011.4 hPa | 0 mm | - | 0 W/m² | - |
| 1777966685 | 11.11° C | 91% | 1011.7 hPa | 0 mm | - | 0 W/m² | - |
| 1777966383 | 11.11° C | 92% | 1011.5 hPa | 0 mm | - | 0 W/m² | - |
| 1777966080 | 10.56° C | 92% | 1011.7 hPa | 0 mm | - | 0 W/m² | - |
| 1777965775 | 10.56° C | 92% | 1011.7 hPa | 0 mm | - | 0 W/m² | - |
| 1777965471 | 10.56° C | 92% | 1011.5 hPa | 0 mm | - | 0 W/m² | - |
| 1777965168 | 10.56° C | 92% | 1011.6 hPa | 0 mm | - | 0 W/m² | - |
| 1777964866 | 10.56° C | 92% | 1011.5 hPa | 0 mm | - | 0 W/m² | - |
| 1777964562 | 10.56° C | 92% | 1011.5 hPa | 0 mm | - | 0 W/m² | - |
| 1777964258 | 10.56° C | 92% | 1011.6 hPa | 0 mm | - | 0 W/m² | - |
| 1777963955 | 10.56° C | 91% | 1011.4 hPa | 0 mm | - | 0 W/m² | - |
* Rain latest hour (hover to see other rain measurements)
** Current wind speed in m/s (hover to see current wind gust speed)